^^
Saratoga-Weather Station Historical Data
Daily Summary for June 11, 2020 Units:  English    Metric   Both
Daily Weekly Monthly Yearly Custom
  High: Low: Average:
Temperature: 43.9 °F 34.7 °F 39.6 °F
Dew Point: 40.1 °F 32.9 °F 36.7 °F
Humidity: 97% 77% 90%
Wind Speed: 0mph 0mph 0mph
Wind Gust: 3mph - -
Wind- -
Pressure: 30.5 in 30.4 in -
Precipitation: 0 in    
Historical Graphs
 
 
Tabular Data for June 11, 2020
Time Temperature Dew Point Pressure Wind Wind Speed Wind Gust Humidity Rainfall Rate (Hourly) solar
00:00 38.7 °F 36.9 °F 30.4 in Calm     93% 0 in 0 W/m2
00:05 38.5 °F 36.7 °F 30.5 in Calm     93% 0 in 0 W/m2
00:10 37.9 °F 36.1 °F 30.5 in Calm     93% 0 in 0 W/m2
00:15 37.8 °F 36 °F 30.5 in Calm     93% 0 in 0 W/m2
00:20 37.8 °F 36.1 °F 30.5 in Calm     94% 0 in 0 W/m2
00:25 37.8 °F 36.1 °F 30.5 in Calm     94% 0 in 0 W/m2
00:30 37.9 °F 36.7 °F 30.5 in Calm   1 mph 95% 0 in 0 W/m2
00:35 37.9 °F 36.7 °F 30.5 in Calm     95% 0 in 0 W/m2
00:40 37.9 °F 36.7 °F 30.5 in Calm     95% 0 in 0 W/m2
00:45 38.3 °F 37 °F 30.5 in Calm     95% 0 in 0 W/m2
00:50 38.3 °F 37 °F 30.5 in Calm     95% 0 in 0 W/m2
00:55 38.1 °F 36.9 °F 30.5 in Calm     95% 0 in 0 W/m2
01:00 37.9 °F 36.7 °F 30.5 in Calm     95% 0 in 0 W/m2
01:05 37.9 °F 36.7 °F 30.5 in Calm     95% 0 in 0 W/m2
01:10 37.9 °F 36.7 °F 30.5 in Calm   1 mph 95% 0 in 0 W/m2
01:15 37.9 °F 36.7 °F 30.5 in Calm     95% 0 in 0 W/m2
01:20 38.3 °F 37.2 °F 30.5 in Calm     96% 0 in 0 W/m2
01:25 38.7 °F 37.6 °F 30.5 in Calm     96% 0 in 0 W/m2
01:30 38.5 °F 37.2 °F 30.5 in Calm     95% 0 in 0 W/m2
01:35 38.3 °F 37 °F 30.5 in Calm     95% 0 in 0 W/m2
01:40 37.9 °F 36.7 °F 30.5 in Calm     95% 0 in 0 W/m2
01:45 37.6 °F 36.3 °F 30.5 in Calm     95% 0 in 0 W/m2
01:50 37.2 °F 36 °F 30.5 in Calm     95% 0 in 0 W/m2
01:55 36.9 °F 35.6 °F 30.5 in Calm     95% 0 in 0 W/m2
02:00 37 °F 35.8 °F 30.5 in Calm     95% 0 in 0 W/m2
02:05 37.4 °F 36.3 °F 30.5 in Calm     96% 0 in 0 W/m2
02:10 37.8 °F 36.7 °F 30.5 in Calm     96% 0 in 0 W/m2
02:15 37.8 °F 36.7 °F 30.5 in Calm     96% 0 in 0 W/m2
02:20 37.6 °F 36.3 °F 30.5 in Calm     95% 0 in 0 W/m2
02:25 37.2 °F 36 °F 30.5 in Calm     95% 0 in 0 W/m2
02:30 36.9 °F 35.6 °F 30.5 in Calm     95% 0 in 0 W/m2
02:35 36.3 °F 35.1 °F 30.5 in Calm     95% 0 in 0 W/m2
02:40 36.1 °F 34.9 °F 30.5 in Calm     95% 0 in 0 W/m2
02:45 36 °F 34.7 °F 30.5 in Calm     95% 0 in 0 W/m2
02:50 35.8 °F 34.5 °F 30.5 in Calm     95% 0 in 0 W/m2
02:55 35.4 °F 34.2 °F 30.5 in Calm     95% 0 in 0 W/m2
03:00 35.2 °F 34 °F 30.5 in Calm     95% 0 in 0 W/m2
03:05 35.1 °F 33.8 °F 30.5 in Calm     95% 0 in 0 W/m2
03:10 35.1 °F 33.8 °F 30.5 in Calm     95% 0 in 0 W/m2
03:15 35.1 °F 34 °F 30.5 in Calm     96% 0 in 0 W/m2
03:20 35.1 °F 34 °F 30.5 in Calm     96% 0 in 0 W/m2
03:25 35.2 °F 34.2 °F 30.5 in Calm     96% 0 in 0 W/m2
03:30 35.8 °F 34.7 °F 30.5 in Calm     96% 0 in 0 W/m2
03:35 36.1 °F 35.1 °F 30.5 in Calm     96% 0 in 0 W/m2
03:40 36.3 °F 35.2 °F 30.5 in Calm     96% 0 in 0 W/m2
03:45 36.7 °F 35.6 °F 30.5 in Calm     96% 0 in 0 W/m2
03:50 36.9 °F 35.8 °F 30.5 in Calm     96% 0 in 0 W/m2
03:55 36.9 °F 35.8 °F 30.5 in Calm     96% 0 in 0 W/m2
04:00 37 °F 36 °F 30.5 in Calm     96% 0 in 0 W/m2
04:05 37 °F 36 °F 30.5 in Calm     96% 0 in 0 W/m2
04:10 37 °F 36 °F 30.5 in Calm     96% 0 in 0 W/m2
04:15 37 °F 36 °F 30.5 in Calm     96% 0 in 0 W/m2
04:20 37 °F 36 °F 30.5 in Calm     96% 0 in 0 W/m2
04:25 37 °F 36 °F 30.5 in Calm     96% 0 in 0 W/m2
04:30 37 °F 36 °F 30.5 in Calm     96% 0 in 0 W/m2
04:35 37 °F 36 °F 30.5 in Calm     96% 0 in 0 W/m2
04:40 37 °F 36 °F 30.5 in Calm     96% 0 in 0 W/m2
04:45 37 °F 36 °F 30.5 in Calm     96% 0 in 0 W/m2
04:50 37 °F 36 °F 30.5 in Calm     96% 0 in 0 W/m2
04:55 37 °F 36 °F 30.5 in Calm     96% 0 in 0 W/m2
05:00 37 °F 36 °F 30.5 in Calm     96% 0 in 0 W/m2
05:06 37.2 °F 36.1 °F 30.5 in Calm   1 mph 96% 0 in 0 W/m2
05:11 37.2 °F 36.1 °F 30.5 in Calm     96% 0 in 0 W/m2
05:16 37.2 °F 36.1 °F 30.5 in Calm   1 mph 96% 0 in 0 W/m2
05:21 37.2 °F 36.1 °F 30.5 in Calm     96% 0 in 0 W/m2
05:26 37.2 °F 36.1 °F 30.5 in Calm     96% 0 in 0 W/m2
05:31 37.2 °F 36.1 °F 30.5 in Calm     96% 0 in 0 W/m2
05:36 37.2 °F 36.1 °F 30.5 in Calm     96% 0 in 0 W/m2
05:41 37.2 °F 36.1 °F 30.5 in Calm     96% 0 in 0 W/m2
05:46 37.4 °F 36.3 °F 30.5 in Calm     96% 0 in 0 W/m2
05:51 37.4 °F 36.3 °F 30.5 in Calm     96% 0 in 0 W/m2
05:56 37.2 °F 36.1 °F 30.5 in Calm     96% 0 in 0 W/m2
06:01 37.4 °F 36.3 °F 30.5 in Calm     96% 0 in 0 W/m2
06:06 37.4 °F 36.3 °F 30.5 in Calm     96% 0 in 0 W/m2
06:11 37.4 °F 36.3 °F 30.5 in Calm     96% 0 in 0 W/m2
06:16 37.4 °F 36.3 °F 30.5 in Calm     96% 0 in 0 W/m2
06:21 37.4 °F 36.3 °F 30.5 in Calm     96% 0 in 0 W/m2
06:26 37.6 °F 36.5 °F 30.5 in Calm     96% 0 in 0 W/m2
06:31 37.6 °F 36.5 °F 30.5 in Calm     96% 0 in 0 W/m2
06:36 37.6 °F 36.5 °F 30.5 in Calm     96% 0 in 0 W/m2
06:41 37.6 °F 36.9 °F 30.5 in Calm     97% 0 in 0 W/m2
06:46 37.8 °F 36.7 °F 30.5 in Calm     96% 0 in 0 W/m2
06:51 37.8 °F 36.7 °F 30.5 in Calm     96% 0 in 0 W/m2
06:56 37.8 °F 36.7 °F 30.5 in Calm     96% 0 in 0 W/m2
07:01 37.8 °F 36.7 °F 30.5 in Calm     96% 0 in 0 W/m2
07:06 37.8 °F 36.7 °F 30.5 in Calm     96% 0 in 0 W/m2
07:11 37.8 °F 36.7 °F 30.5 in Calm     96% 0 in 0 W/m2
07:16 37.8 °F 36.7 °F 30.5 in Calm     96% 0 in 0 W/m2
07:21 37.8 °F 36.7 °F 30.5 in Calm     96% 0 in 0 W/m2
07:26 37.8 °F 36.7 °F 30.5 in Calm     96% 0 in 0 W/m2
07:31 37.9 °F 36.9 °F 30.5 in Calm     96% 0 in 0 W/m2
07:36 37.9 °F 36.9 °F 30.5 in Calm     96% 0 in 0 W/m2
07:41 37.9 °F 36.9 °F 30.5 in Calm     96% 0 in 0 W/m2
07:46 37.9 °F 36.9 °F 30.5 in Calm     96% 0 in 0 W/m2
07:51 37.9 °F 36.9 °F 30.5 in Calm     96% 0 in 0 W/m2
07:56 37.9 °F 36.9 °F 30.5 in Calm     96% 0 in 0 W/m2
08:01 37.9 °F 36.9 °F 30.5 in Calm     96% 0 in 0 W/m2
08:06 37.9 °F 36.9 °F 30.5 in Calm     96% 0 in 0 W/m2
08:11 38.1 °F 37.4 °F 30.5 in Calm     97% 0 in 0 W/m2
08:16 37.9 °F 37.2 °F 30.5 in Calm     97% 0 in 0 W/m2
08:21 38.1 °F 37.4 °F 30.5 in Calm     97% 0 in 0 W/m2
08:26 38.1 °F 37.4 °F 30.5 in Calm     97% 0 in 0 W/m2
08:31 38.1 °F 37 °F 30.5 in Calm     96% 0 in 0 W/m2
08:36 38.1 °F 37.4 °F 30.5 in Calm   1 mph 97% 0 in 5 W/m2
08:41 38.3 °F 37.6 °F 30.5 in Calm     97% 0 in 7 W/m2
08:46 38.5 °F 37.8 °F 30.5 in Calm   1 mph 97% 0 in 7 W/m2
08:51 38.7 °F 37.9 °F 30.5 in Calm     97% 0 in 11 W/m2
08:56 38.7 °F 37.6 °F 30.5 in Calm   1 mph 96% 0 in 11 W/m2
09:01 38.8 °F 38.1 °F 30.5 in Calm   1 mph 97% 0 in 12 W/m2
09:06 38.8 °F 38.1 °F 30.5 in Calm     97% 0 in 12 W/m2
09:11 39 °F 37.9 °F 30.5 in Calm     96% 0 in 14 W/m2
09:16 39 °F 37.9 °F 30.5 in Calm     96% 0 in 18 W/m2
09:21 39.2 °F 38.1 °F 30.5 in Calm     96% 0 in 23 W/m2
09:26 39.4 °F 38.3 °F 30.5 in Calm     96% 0 in 28 W/m2
09:31 39.4 °F 38.3 °F 30.5 in Calm     96% 0 in 35 W/m2
09:36 39.4 °F 38.3 °F 30.5 in Calm     96% 0 in 37 W/m2
09:41 39.6 °F 38.5 °F 30.5 in Calm     96% 0 in 40 W/m2
09:46 39.6 °F 38.5 °F 30.5 in Calm     96% 0 in 46 W/m2
09:51 39.7 °F 38.7 °F 30.5 in Calm     96% 0 in 47 W/m2
09:56 39.7 °F 38.7 °F 30.5 in Calm     96% 0 in 51 W/m2
10:01 39.9 °F 38.8 °F 30.5 in Calm     96% 0 in 72 W/m2
10:06 39.9 °F 38.8 °F 30.5 in Calm     96% 0 in 90 W/m2
10:11 40.1 °F 39 °F 30.5 in Calm     96% 0 in 81 W/m2
10:16 40.3 °F 39.2 °F 30.5 in Calm     96% 0 in 69 W/m2
10:21 40.5 °F 39.4 °F 30.5 in Calm     96% 0 in 76 W/m2
10:26 40.6 °F 39.6 °F 30.5 in Calm     96% 0 in 72 W/m2
10:31 40.6 °F 39.6 °F 30.5 in Calm     96% 0 in 65 W/m2
10:36 40.8 °F 39.6 °F 30.5 in Calm     95% 0 in 76 W/m2
10:41 41 °F 39.7 °F 30.5 in Calm     95% 0 in 72 W/m2
10:46 41.2 °F 39.9 °F 30.5 in Calm     95% 0 in 77 W/m2
10:51 41.4 °F 39.7 °F 30.5 in Calm     94% 0 in 84 W/m2
10:56 41.4 °F 39.7 °F 30.5 in Calm     94% 0 in 97 W/m2
11:01 41.5 °F 39.9 °F 30.5 in Calm     94% 0 in 113 W/m2
11:06 41.7 °F 39.9 °F 30.5 in Calm     93% 0 in 113 W/m2
11:11 41.9 °F 39.7 °F 30.5 in Calm     92% 0 in 116 W/m2
11:16 42.3 °F 40.1 °F 30.5 in Calm     92% 0 in 109 W/m2
11:21 42.3 °F 39.7 °F 30.5 in Calm     91% 0 in 121 W/m2
11:26 42.4 °F 39.9 °F 30.5 in Calm     91% 0 in 114 W/m2
11:31 42.6 °F 39.9 °F 30.5 in Calm     90% 0 in 109 W/m2
11:36 42.8 °F 39.7 °F 30.5 in Calm     89% 0 in 118 W/m2
11:41 42.8 °F 39.6 °F 30.5 in Calm     88% 0 in 127 W/m2
11:46 43 °F 39.4 °F 30.5 in Calm     87% 0 in 132 W/m2
11:51 43 °F 39 °F 30.5 in Calm     86% 0 in 132 W/m2
11:56 43.2 °F 39 °F 30.5 in Calm     85% 0 in 127 W/m2
12:01 43.3 °F 39.2 °F 30.5 in Calm     85% 0 in 120 W/m2
12:06 43.5 °F 39 °F 30.5 in Calm     84% 0 in 121 W/m2
12:11 43.3 °F 38.8 °F 30.5 in Calm     84% 0 in 105 W/m2
12:16 43.5 °F 39 °F 30.5 in Calm     84% 0 in 120 W/m2
12:22 43.5 °F 39 °F 30.5 in Calm     84% 0 in 132 W/m2
12:27 43.5 °F 38.7 °F 30.5 in Calm     83% 0 in 123 W/m2
12:32 43.7 °F 38.8 °F 30.5 in Calm     83% 0 in 127 W/m2
12:37 43.5 °F 38.5 °F 30.5 in Calm     82% 0 in 118 W/m2
12:42 43.5 °F 38.1 °F 30.5 in Calm     81% 0 in 105 W/m2
12:47 43.7 °F 38.3 °F 30.5 in Calm     81% 0 in 102 W/m2
12:52 43.7 °F 38.3 °F 30.5 in Calm   1 mph 81% 0 in 102 W/m2
12:57 43.9 °F 38.5 °F 30.5 in Calm     81% 0 in 97 W/m2
13:02 43.7 °F 38.3 °F 30.5 in Calm     81% 0 in 109 W/m2
13:07 43.9 °F 38.5 °F 30.5 in Calm   1 mph 81% 0 in 111 W/m2
13:12 43.9 °F 38.1 °F 30.5 in Calm   2 mph 80% 0 in 116 W/m2
13:17 43.9 °F 38.5 °F 30.5 in Calm     81% 0 in 120 W/m2
13:22 43.9 °F 38.1 °F 30.5 in Calm   2 mph 80% 0 in 93 W/m2
13:27 43.9 °F 38.1 °F 30.5 in Calm   1 mph 80% 0 in 91 W/m2
13:32 43.9 °F 37.8 °F 30.5 in Calm     79% 0 in 95 W/m2
13:37 43.9 °F 37.8 °F 30.5 in Calm   1 mph 79% 0 in 100 W/m2
13:42 43.9 °F 37.4 °F 30.5 in Calm   3 mph 78% 0 in 93 W/m2
13:47 43.9 °F 37.8 °F 30.5 in Calm     79% 0 in 86 W/m2
13:52 43.9 °F 37.8 °F 30.5 in Calm   3 mph 79% 0 in 76 W/m2
13:57 43.9 °F 37.4 °F 30.5 in Calm     78% 0 in 69 W/m2
14:02 43.9 °F 37.8 °F 30.5 in Calm   2 mph 79% 0 in 67 W/m2
14:07 43.7 °F 37.6 °F 30.5 in Calm     79% 0 in 63 W/m2
14:12 43.9 °F 37.8 °F 30.5 in Calm     79% 0 in 72 W/m2
14:17 43.9 °F 37.8 °F 30.5 in Calm     79% 0 in 62 W/m2
14:22 43.9 °F 38.1 °F 30.5 in Calm     80% 0 in 53 W/m2
14:27 43.7 °F 37.9 °F 30.5 in Calm     80% 0 in 46 W/m2
14:32 43.5 °F 37.4 °F 30.5 in Calm     79% 0 in 44 W/m2
14:38 43.5 °F 37.4 °F 30.5 in Calm     79% 0 in 35 W/m2
14:43 43.5 °F 37.8 °F 30.5 in Calm   1 mph 80% 0 in 33 W/m2
14:48 43.3 °F 37.6 °F 30.5 in Calm     80% 0 in 35 W/m2
14:53 43.3 °F 37.6 °F 30.5 in Calm     80% 0 in 39 W/m2
14:58 43.3 °F 37.9 °F 30.5 in Calm     81% 0 in 40 W/m2
15:03 43.3 °F 37.9 °F 30.5 in Calm     81% 0 in 42 W/m2
15:08 43.3 °F 37.9 °F 30.5 in Calm     81% 0 in 35 W/m2
15:13 43.3 °F 37.9 °F 30.5 in Calm   1 mph 81% 0 in 44 W/m2
15:18 43.3 °F 37.6 °F 30.5 in Calm     80% 0 in 51 W/m2
15:23 43.3 °F 37.6 °F 30.5 in Calm   1 mph 80% 0 in 46 W/m2
15:28 43.3 °F 37.6 °F 30.5 in Calm     80% 0 in 40 W/m2
15:33 43.3 °F 37.2 °F 30.5 in Calm   1 mph 79% 0 in 35 W/m2
15:38 43.2 °F 37 °F 30.5 in Calm     79% 0 in 30 W/m2
15:43 43.2 °F 37 °F 30.5 in Calm     79% 0 in 30 W/m2
15:48 43.2 °F 36.7 °F 30.5 in Calm     78% 0 in 28 W/m2
15:53 43.2 °F 37 °F 30.5 in Calm     79% 0 in 26 W/m2
15:58 43.2 °F 36.7 °F 30.5 in Calm     78% 0 in 25 W/m2
16:03 43 °F 36.7 °F 30.5 in Calm   2 mph 78% 0 in 25 W/m2
16:08 43 °F 36.7 °F 30.5 in Calm     78% 0 in 21 W/m2
16:13 43 °F 36.3 °F 30.5 in Calm     77% 0 in 19 W/m2
16:18 43 °F 36.3 °F 30.5 in Calm     77% 0 in 16 W/m2
16:23 42.8 °F 36.1 °F 30.5 in Calm     77% 0 in 12 W/m2
16:28 42.8 °F 36.5 °F 30.5 in Calm     78% 0 in 7 W/m2
16:33 42.6 °F 36.3 °F 30.5 in Calm     78% 0 in 5 W/m2
16:38 42.6 °F 36.3 °F 30.5 in Calm     78% 0 in 0 W/m2
16:43 42.6 °F 36.3 °F 30.5 in Calm     78% 0 in 0 W/m2
16:48 42.6 °F 36.3 °F 30.5 in Calm     78% 0 in 0 W/m2
16:53 42.4 °F 36.1 °F 30.5 in Calm     78% 0 in 0 W/m2
16:58 42.4 °F 36.1 °F 30.5 in Calm   1 mph 78% 0 in 0 W/m2
17:03 42.4 °F 36.1 °F 30.5 in Calm     78% 0 in 0 W/m2
17:08 42.4 °F 36.1 °F 30.5 in Calm   1 mph 78% 0 in 0 W/m2
17:13 42.4 °F 36.3 °F 30.5 in Calm     79% 0 in 0 W/m2
17:18 42.4 °F 36.3 °F 30.5 in Calm   1 mph 79% 0 in 0 W/m2
17:23 42.4 °F 36.3 °F 30.5 in Calm     79% 0 in 0 W/m2
17:28 42.3 °F 36.1 °F 30.5 in Calm     79% 0 in 0 W/m2
17:33 42.3 °F 36.1 °F 30.5 in Calm     79% 0 in 0 W/m2
17:38 42.3 °F 36.1 °F 30.5 in Calm     79% 0 in 0 W/m2
17:43 42.3 °F 36.1 °F 30.5 in Calm     79% 0 in 0 W/m2
17:48 42.3 °F 36.9 °F 30.5 in Calm     81% 0 in 0 W/m2
17:53 42.1 °F 36.3 °F 30.5 in Calm     80% 0 in 0 W/m2
17:58 42.1 °F 36.3 °F 30.5 in Calm     80% 0 in 0 W/m2
18:03 41.9 °F 36.5 °F 30.5 in Calm     81% 0 in 0 W/m2
18:08 41.9 °F 36.9 °F 30.5 in Calm     82% 0 in 0 W/m2
18:13 41.7 °F 36.9 °F 30.5 in Calm     83% 0 in 0 W/m2
18:18 41.7 °F 36.9 °F 30.5 in Calm     83% 0 in 0 W/m2
18:23 41.5 °F 36.7 °F 30.5 in Calm     83% 0 in 0 W/m2
18:28 41.5 °F 36.7 °F 30.5 in Calm     83% 0 in 0 W/m2
18:33 41.4 °F 36.5 °F 30.5 in Calm     83% 0 in 0 W/m2
18:38 41.4 °F 36.5 °F 30.5 in Calm     83% 0 in 0 W/m2
18:43 41.4 °F 36.9 °F 30.5 in Calm     84% 0 in 0 W/m2
18:48 41.4 °F 36.9 °F 30.5 in Calm     84% 0 in 0 W/m2
18:53 41.4 °F 36.9 °F 30.5 in Calm     84% 0 in 0 W/m2
18:58 41.4 °F 36.9 °F 30.5 in Calm     84% 0 in 0 W/m2
19:03 41.4 °F 36.9 °F 30.5 in Calm     84% 0 in 0 W/m2
19:08 41.2 °F 37 °F 30.5 in Calm     85% 0 in 0 W/m2
19:13 41.2 °F 37 °F 30.5 in Calm     85% 0 in 0 W/m2
19:18 41.2 °F 37 °F 30.5 in Calm     85% 0 in 0 W/m2
19:23 41.2 °F 36.7 °F 30.5 in Calm     84% 0 in 0 W/m2
19:28 41.2 °F 37 °F 30.5 in Calm     85% 0 in 0 W/m2
19:34 41 °F 36.9 °F 30.5 in Calm     85% 0 in 0 W/m2
19:39 41 °F 36.9 °F 30.5 in Calm     85% 0 in 0 W/m2
19:44 40.8 °F 36.7 °F 30.5 in Calm     85% 0 in 0 W/m2
19:49 40.8 °F 36.7 °F 30.5 in Calm     85% 0 in 0 W/m2
19:54 40.8 °F 36.7 °F 30.5 in Calm     85% 0 in 0 W/m2
19:59 40.6 °F 36.5 °F 30.5 in Calm     85% 0 in 0 W/m2
20:04 40.6 °F 36.9 °F 30.5 in Calm     86% 0 in 0 W/m2
20:09 40.5 °F 36.7 °F 30.5 in Calm     86% 0 in 0 W/m2
20:14 40.3 °F 36.5 °F 30.5 in Calm     86% 0 in 0 W/m2
20:19 40.3 °F 36.7 °F 30.5 in Calm     87% 0 in 0 W/m2
20:24 39.9 °F 36.3 °F 30.5 in Calm     87% 0 in 0 W/m2
20:29 39.9 °F 36.7 °F 30.5 in Calm     88% 0 in 0 W/m2
20:34 39.7 °F 36.5 °F 30.5 in Calm     88% 0 in 0 W/m2
20:39 39.7 °F 36.5 °F 30.5 in Calm     88% 0 in 0 W/m2
20:44 39.7 °F 36.7 °F 30.4 in Calm     89% 0 in 0 W/m2
20:49 39.7 °F 36.7 °F 30.4 in Calm     89% 0 in 0 W/m2
20:54 39.7 °F 36.7 °F 30.4 in Calm     89% 0 in 0 W/m2
20:59 39.7 °F 36.7 °F 30.4 in Calm     89% 0 in 0 W/m2
21:04 39.6 °F 36.3 °F 30.4 in Calm     88% 0 in 0 W/m2
21:09 39.6 °F 36.3 °F 30.4 in Calm     88% 0 in 0 W/m2
21:14 39.6 °F 36.3 °F 30.4 in Calm     88% 0 in 0 W/m2
21:19 39.4 °F 36.1 °F 30.4 in Calm     88% 0 in 0 W/m2
21:24 39 °F 35.8 °F 30.4 in Calm     88% 0 in 0 W/m2
21:29 38.8 °F 35.6 °F 30.4 in Calm     88% 0 in 0 W/m2
21:34 38.7 °F 35.4 °F 30.4 in Calm     88% 0 in 0 W/m2
21:39 38.5 °F 35.2 °F 30.4 in Calm     88% 0 in 0 W/m2
21:44 37.9 °F 34.7 °F 30.4 in Calm     88% 0 in 0 W/m2
21:49 37.6 °F 34.3 °F 30.4 in Calm     88% 0 in 0 W/m2
21:54 37.2 °F 34.3 °F 30.4 in Calm     89% 0 in 0 W/m2
21:59 36.9 °F 34 °F 30.4 in Calm     89% 0 in 0 W/m2
22:05 36.7 °F 33.8 °F 30.4 in Calm     89% 0 in 0 W/m2
22:10 36.3 °F 33.6 °F 30.4 in Calm     90% 0 in 0 W/m2
22:15 36.1 °F 33.4 °F 30.4 in Calm     90% 0 in 0 W/m2
22:20 36 °F 33.6 °F 30.4 in Calm     91% 0 in 0 W/m2
22:25 36 °F 33.6 °F 30.4 in Calm     91% 0 in 0 W/m2
22:30 35.8 °F 33.4 °F 30.4 in Calm     91% 0 in 0 W/m2
22:35 35.4 °F 33.1 °F 30.4 in Calm     91% 0 in 0 W/m2
22:40 35.2 °F 33.1 °F 30.4 in Calm     92% 0 in 0 W/m2
22:45 35.2 °F 33.1 °F 30.4 in Calm     92% 0 in 0 W/m2
22:50 35.1 °F 32.9 °F 30.4 in Calm     92% 0 in 0 W/m2
22:55 35.1 °F 33.3 °F 30.4 in Calm     93% 0 in 0 W/m2
23:00 35.1 °F 33.3 °F 30.4 in Calm     93% 0 in 0 W/m2
23:05 35.1 °F 33.3 °F 30.4 in Calm     93% 0 in 0 W/m2
23:10 35.1 °F 33.3 °F 30.4 in Calm     93% 0 in 0 W/m2
23:15 35.1 °F 33.3 °F 30.4 in Calm     93% 0 in 0 W/m2
23:20 35.1 °F 33.3 °F 30.4 in Calm     93% 0 in 0 W/m2
23:25 34.9 °F 33.1 °F 30.4 in Calm     93% 0 in 0 W/m2
23:30 34.9 °F 33.1 °F 30.4 in Calm     93% 0 in 0 W/m2
23:35 34.9 °F 33.1 °F 30.4 in Calm     93% 0 in 0 W/m2
23:41 34.9 °F 33.1 °F 30.4 in Calm     93% 0 in 0 W/m2
23:46 34.7 °F 33.1 °F 30.4 in Calm     94% 0 in 0 W/m2
23:51 34.9 °F 33.3 °F 30.4 in Calm     94% 0 in 0 W/m2
23:56 34.9 °F 33.3 °F 30.4 in Calm     94% 0 in 0 W/m2
Juneau County Weather
Compliments of Weather Underground - 4 mb